createdAt,value
2019-01-17T00:00:42.042Z,6.17
2019-01-17T00:01:41.860Z,6.17
2019-01-17T00:02:41.837Z,6.20
2019-01-17T00:03:42.027Z,6.20
2019-01-17T00:04:41.810Z,6.19
2019-01-17T00:05:41.825Z,6.27
2019-01-17T00:06:41.794Z,6.16
2019-01-17T00:07:41.785Z,6.30
2019-01-17T00:08:42.080Z,6.27
2019-01-17T00:09:42.009Z,6.25
2019-01-17T00:10:41.769Z,6.20
2019-01-17T00:11:41.793Z,6.32
2019-01-17T00:12:41.745Z,6.28
2019-01-17T00:13:41.714Z,6.17
2019-01-17T00:14:41.707Z,6.16
2019-01-17T00:15:42.035Z,6.25
2019-01-17T00:16:41.686Z,6.19
2019-01-17T00:17:41.672Z,6.21
2019-01-17T00:18:41.670Z,6.16
2019-01-17T00:19:41.656Z,6.19
2019-01-17T00:20:41.687Z,6.25
2019-01-17T00:21:41.778Z,6.13
2019-01-17T00:22:41.827Z,6.20
2019-01-17T00:23:41.615Z,6.30
2019-01-17T00:24:41.608Z,6.20
2019-01-17T00:25:41.619Z,6.25
2019-01-17T00:26:41.834Z,6.19
2019-01-17T00:27:41.568Z,6.17
2019-01-17T00:28:41.553Z,6.24
2019-01-17T00:29:41.576Z,6.16
2019-01-17T00:30:41.558Z,6.21
2019-01-17T00:31:41.577Z,6.19
2019-01-17T00:32:41.518Z,6.17
2019-01-17T00:33:41.650Z,6.14
2019-01-17T00:34:41.511Z,6.24
2019-01-17T00:35:41.479Z,6.25
2019-01-17T00:36:41.502Z,6.24
2019-01-17T00:37:41.486Z,6.30
2019-01-17T00:38:41.473Z,6.35
2019-01-17T00:39:41.439Z,6.27
2019-01-17T00:40:41.670Z,6.32
2019-01-17T00:41:41.449Z,6.40
2019-01-17T00:42:41.698Z,6.32
2019-01-17T00:43:41.687Z,6.35
2019-01-17T00:44:41.392Z,6.32
2019-01-17T00:45:41.651Z,6.30
2019-01-17T00:46:41.456Z,6.38
2019-01-17T00:47:41.447Z,6.35
2019-01-17T00:48:41.365Z,6.33
2019-01-17T00:49:41.345Z,6.35
2019-01-17T00:50:41.319Z,6.35
2019-01-17T00:51:41.464Z,6.32
2019-01-17T00:52:41.378Z,6.28
2019-01-17T00:53:41.289Z,6.33
2019-01-17T00:54:41.416Z,6.35
2019-01-17T00:55:41.800Z,6.36
2019-01-17T00:56:41.270Z,6.28
2019-01-17T00:57:41.278Z,6.39
2019-01-17T00:58:41.234Z,6.33
2019-01-17T00:59:41.257Z,6.38
2019-01-17T01:00:41.217Z,6.27
2019-01-17T01:01:41.200Z,6.38
2019-01-17T01:02:41.219Z,6.20
2019-01-17T01:03:41.192Z,6.21
2019-01-17T01:04:41.379Z,6.19
2019-01-17T01:05:41.165Z,6.19
2019-01-17T01:06:41.159Z,6.19
2019-01-17T01:07:41.168Z,6.16
2019-01-17T01:08:41.127Z,6.21
2019-01-17T01:09:41.298Z,6.25
2019-01-17T01:10:41.110Z,6.21
2019-01-17T01:11:41.339Z,6.16
2019-01-17T01:12:41.149Z,6.28
2019-01-17T01:13:41.225Z,6.24
2019-01-17T01:14:41.065Z,6.25
2019-01-17T01:15:41.062Z,6.21
2019-01-17T01:16:41.042Z,6.19
2019-01-17T01:17:41.335Z,6.03
2019-01-17T01:18:41.462Z,6.06
2019-01-17T01:19:41.053Z,6.05
2019-01-17T01:20:41.012Z,6.06
2019-01-17T01:21:42.291Z,6.05
2019-01-17T01:22:40.983Z,6.02
2019-01-17T01:23:41.237Z,5.93
2019-01-17T01:24:40.962Z,5.95
2019-01-17T01:25:41.043Z,5.96
2019-01-17T01:26:40.957Z,5.90
2019-01-17T01:27:41.203Z,5.95
2019-01-17T01:28:40.936Z,5.92
2019-01-17T01:29:40.910Z,5.83
2019-01-17T01:30:40.914Z,5.81
2019-01-17T01:31:41.049Z,5.83
2019-01-17T01:32:40.870Z,5.84
2019-01-17T01:33:41.142Z,5.84
2019-01-17T01:34:40.870Z,5.87
2019-01-17T01:35:40.838Z,5.84
2019-01-17T01:36:41.037Z,5.80
2019-01-17T01:37:40.819Z,5.75
2019-01-17T01:38:41.016Z,5.74
2019-01-17T01:39:41.037Z,5.69
2019-01-17T01:40:40.818Z,5.84
2019-01-17T01:41:40.779Z,5.80
2019-01-17T01:42:40.763Z,5.75
2019-01-17T01:43:40.788Z,5.80
2019-01-17T01:44:40.789Z,5.81
2019-01-17T01:45:40.757Z,5.70
2019-01-17T01:46:40.726Z,5.78
2019-01-17T01:47:40.743Z,5.69
2019-01-17T01:48:40.731Z,5.75
2019-01-17T01:49:40.876Z,5.62
2019-01-17T01:50:40.894Z,5.63
2019-01-17T01:51:40.942Z,5.63
2019-01-17T01:52:40.664Z,5.62
2019-01-17T01:53:40.690Z,5.73
2019-01-17T01:54:40.651Z,5.69
2019-01-17T01:55:40.691Z,5.66
2019-01-17T01:56:40.638Z,5.59
2019-01-17T01:57:40.699Z,5.62
2019-01-17T01:58:40.641Z,5.65
2019-01-17T01:59:40.636Z,5.63
2019-01-17T02:00:40.618Z,5.66
2019-01-17T02:01:40.594Z,5.63
2019-01-17T02:02:40.551Z,5.65
2019-01-17T02:03:40.571Z,5.65
2019-01-17T02:04:40.536Z,5.63
2019-01-17T02:05:40.556Z,5.62
2019-01-17T02:06:40.630Z,5.62
2019-01-17T02:07:40.506Z,5.69
2019-01-17T02:08:40.582Z,5.66
2019-01-17T02:09:40.478Z,5.63
2019-01-17T02:10:40.498Z,5.69
2019-01-17T02:11:40.468Z,5.63
2019-01-17T02:12:40.443Z,5.66
2019-01-17T02:13:40.438Z,5.70
2019-01-17T02:14:40.434Z,5.74
2019-01-17T02:15:40.450Z,5.70
2019-01-17T02:16:40.432Z,5.59
2019-01-17T02:17:40.421Z,5.74
2019-01-17T02:18:40.621Z,5.67
2019-01-17T02:19:40.371Z,5.66
2019-01-17T02:20:40.402Z,5.66
2019-01-17T02:21:40.405Z,5.65
2019-01-17T02:22:40.352Z,5.67
2019-01-17T02:23:40.368Z,5.62
2019-01-17T02:24:40.314Z,5.65
2019-01-17T02:25:40.322Z,5.59
2019-01-17T02:26:40.326Z,5.62
2019-01-17T02:27:40.312Z,5.66
2019-01-17T02:28:40.459Z,5.63
2019-01-17T02:29:40.269Z,5.66
2019-01-17T02:30:40.256Z,5.56
2019-01-17T02:31:40.271Z,5.56
2019-01-17T02:32:40.500Z,5.51
2019-01-17T02:33:40.220Z,5.59
2019-01-17T02:34:40.222Z,5.55
2019-01-17T02:35:40.217Z,5.59
2019-01-17T02:36:40.281Z,5.60
2019-01-17T02:37:40.179Z,5.58
2019-01-17T02:38:40.173Z,5.56
2019-01-17T02:39:40.252Z,5.55
2019-01-17T02:40:40.462Z,5.52
2019-01-17T02:41:40.315Z,5.58
2019-01-17T02:42:40.160Z,5.51
2019-01-17T02:43:40.397Z,5.58
2019-01-17T02:44:40.104Z,5.63
2019-01-17T02:45:40.097Z,5.52
2019-01-17T02:46:40.091Z,5.51
2019-01-17T02:47:40.107Z,5.58
2019-01-17T02:48:40.217Z,5.48
2019-01-17T02:49:40.224Z,5.56
2019-01-17T02:50:40.195Z,5.58
2019-01-17T02:51:40.027Z,5.48
2019-01-17T02:52:40.157Z,5.59
2019-01-17T02:53:40.039Z,5.49
2019-01-17T02:54:40.006Z,5.60
2019-01-17T02:55:39.983Z,5.51
2019-01-17T02:56:39.997Z,5.58
2019-01-17T02:57:39.975Z,5.58
2019-01-17T02:58:39.979Z,5.56
2019-01-17T02:59:39.948Z,5.56
2019-01-17T03:00:39.979Z,5.51
2019-01-17T03:01:39.921Z,5.56
2019-01-17T03:02:39.917Z,5.52
2019-01-17T03:03:39.938Z,5.69
2019-01-17T03:04:40.078Z,5.60
2019-01-17T03:05:40.073Z,5.56
2019-01-17T03:06:39.871Z,5.67
2019-01-17T03:07:39.856Z,5.58
2019-01-17T03:08:39.871Z,5.67
2019-01-17T03:09:39.861Z,5.66
2019-01-17T03:10:39.829Z,5.58
2019-01-17T03:11:39.819Z,5.58
2019-01-17T03:12:40.031Z,5.55
2019-01-17T03:13:39.875Z,5.55
2019-01-17T03:14:39.791Z,5.58
2019-01-17T03:15:39.785Z,5.58
2019-01-17T03:16:39.783Z,5.51
2019-01-17T03:17:39.749Z,5.58
2019-01-17T03:18:39.741Z,5.49
2019-01-17T03:19:39.962Z,5.49
2019-01-17T03:20:39.721Z,5.51
2019-01-17T03:21:39.732Z,5.62
2019-01-17T03:22:39.755Z,5.60
2019-01-17T03:23:39.693Z,5.55
2019-01-17T03:24:43.072Z,5.63
2019-01-17T03:25:39.737Z,5.62
2019-01-17T03:26:39.868Z,5.70
2019-01-17T03:27:39.881Z,5.67
2019-01-17T03:28:39.641Z,5.69
2019-01-17T03:29:39.668Z,5.67
2019-01-17T03:30:39.663Z,5.62
2019-01-17T03:31:39.625Z,5.62
2019-01-17T03:32:39.596Z,5.58
2019-01-17T03:33:39.690Z,5.58
2019-01-17T03:34:39.572Z,5.56
2019-01-17T03:35:39.856Z,5.55
2019-01-17T03:36:39.557Z,5.58
2019-01-17T03:37:39.806Z,5.62
2019-01-17T03:38:39.532Z,5.56
2019-01-17T03:39:39.528Z,5.67
2019-01-17T03:40:39.573Z,5.58
2019-01-17T03:41:39.503Z,5.60
2019-01-17T03:42:39.719Z,5.65
2019-01-17T03:43:39.479Z,5.51
2019-01-17T03:44:39.467Z,5.63
2019-01-17T03:45:39.503Z,5.56
2019-01-17T03:46:39.456Z,5.49
2019-01-17T03:47:39.437Z,5.52
2019-01-17T03:48:39.481Z,5.49
2019-01-17T03:49:39.447Z,5.49
2019-01-17T03:50:39.437Z,5.56
2019-01-17T03:51:39.641Z,5.55
2019-01-17T03:52:39.663Z,5.55
2019-01-17T03:53:39.526Z,5.56
2019-01-17T03:54:39.356Z,5.56
2019-01-17T03:55:39.344Z,5.56
2019-01-17T03:56:39.362Z,5.56
2019-01-17T03:57:39.525Z,5.52
2019-01-17T03:58:39.333Z,5.58
2019-01-17T03:59:39.301Z,5.52
2019-01-17T04:00:39.291Z,5.58
2019-01-17T04:01:39.338Z,5.49
2019-01-17T04:02:39.270Z,5.45
2019-01-17T04:03:39.262Z,5.48
2019-01-17T04:04:39.290Z,5.48
2019-01-17T04:05:39.360Z,5.42
2019-01-17T04:06:39.547Z,5.49
2019-01-17T04:07:39.255Z,5.55
2019-01-17T04:08:39.205Z,5.52
2019-01-17T04:09:39.198Z,5.56
2019-01-17T04:10:39.286Z,5.52
2019-01-17T04:11:39.431Z,5.49
2019-01-17T04:12:39.229Z,5.58
2019-01-17T04:13:39.155Z,5.56
2019-01-17T04:14:39.144Z,5.48
2019-01-17T04:15:39.334Z,5.42
2019-01-17T04:16:39.163Z,5.49
2019-01-17T04:17:39.329Z,5.49
2019-01-17T04:18:39.248Z,5.48
2019-01-17T04:19:39.131Z,5.40
2019-01-17T04:20:39.079Z,5.45
2019-01-17T04:21:39.089Z,5.38
2019-01-17T04:22:39.058Z,5.38
2019-01-17T04:23:39.068Z,5.41
2019-01-17T04:24:39.049Z,5.30
2019-01-17T04:25:39.178Z,5.37
2019-01-17T04:26:39.022Z,5.37
2019-01-17T04:27:39.164Z,5.33
2019-01-17T04:28:39.016Z,5.33
2019-01-17T04:29:38.982Z,5.29
2019-01-17T04:30:38.974Z,5.24
2019-01-17T04:31:39.182Z,5.17
2019-01-17T04:32:38.958Z,5.22
2019-01-17T04:33:38.969Z,5.24
2019-01-17T04:34:38.932Z,5.22
2019-01-17T04:35:38.918Z,5.20
2019-01-17T04:36:38.962Z,5.23
2019-01-17T04:37:38.904Z,5.23
2019-01-17T04:38:38.916Z,5.24
2019-01-17T04:39:39.035Z,5.27
2019-01-17T04:40:38.870Z,5.27
2019-01-17T04:41:38.903Z,5.27
2019-01-17T04:42:38.858Z,5.17
2019-01-17T04:43:38.862Z,5.27
2019-01-17T04:44:38.839Z,5.19
2019-01-17T04:45:39.124Z,5.11
2019-01-17T04:46:39.055Z,5.23
2019-01-17T04:47:38.794Z,5.24
2019-01-17T04:48:38.808Z,5.14
2019-01-17T04:49:38.768Z,5.20
2019-01-17T04:50:38.782Z,5.23
2019-01-17T04:51:38.877Z,5.15
2019-01-17T04:52:38.884Z,5.15
2019-01-17T04:53:38.757Z,5.12
2019-01-17T04:54:38.738Z,5.08
2019-01-17T04:55:38.707Z,5.04
2019-01-17T04:56:38.751Z,5.06
2019-01-17T04:57:38.683Z,5.06
2019-01-17T04:58:38.674Z,5.02
2019-01-17T04:59:38.781Z,5.12
2019-01-17T05:00:38.653Z,5.02
2019-01-17T05:01:38.643Z,5.09
2019-01-17T05:02:38.725Z,4.99
2019-01-17T05:03:38.619Z,5.05
2019-01-17T05:04:38.652Z,5.05
2019-01-17T05:05:38.675Z,5.04
2019-01-17T05:06:38.615Z,5.08
2019-01-17T05:07:38.601Z,5.01
2019-01-17T05:08:38.581Z,4.94
2019-01-17T05:09:38.617Z,5.01
2019-01-17T05:10:38.600Z,4.91
2019-01-17T05:11:38.538Z,4.91
2019-01-17T05:12:38.525Z,4.97
2019-01-17T05:13:38.543Z,4.96
2019-01-17T05:14:38.508Z,4.96
2019-01-17T05:15:38.612Z,4.96
2019-01-17T05:16:38.486Z,4.96
2019-01-17T05:17:38.529Z,4.99
2019-01-17T05:18:38.468Z,5.01
2019-01-17T05:19:38.455Z,4.93
2019-01-17T05:20:38.467Z,4.94
2019-01-17T05:21:38.432Z,4.94
2019-01-17T05:22:38.445Z,4.97
2019-01-17T05:23:38.502Z,4.90
2019-01-17T05:24:38.438Z,4.97
2019-01-17T05:25:38.530Z,4.93
2019-01-17T05:26:38.377Z,4.86
2019-01-17T05:27:38.368Z,4.90
2019-01-17T05:28:38.388Z,4.87
2019-01-17T05:29:38.343Z,4.77
2019-01-17T05:30:38.458Z,4.77
2019-01-17T05:31:38.325Z,4.83
2019-01-17T05:32:38.335Z,4.83
2019-01-17T05:33:38.369Z,4.86
2019-01-17T05:34:39.474Z,4.87
2019-01-17T05:35:38.344Z,4.75
2019-01-17T05:36:38.269Z,4.84
2019-01-17T05:37:38.258Z,4.77
2019-01-17T05:38:38.283Z,4.87
2019-01-17T05:39:38.240Z,4.75
2019-01-17T05:40:38.752Z,4.96
2019-01-17T05:41:38.216Z,4.84
2019-01-17T05:42:38.204Z,4.91
2019-01-17T05:43:38.204Z,4.90
2019-01-17T05:44:38.223Z,4.88
2019-01-17T05:45:38.175Z,4.88
2019-01-17T05:46:38.224Z,4.88
2019-01-17T05:47:38.153Z,4.88
2019-01-17T05:48:38.138Z,4.93
2019-01-17T05:49:38.148Z,4.88
2019-01-17T05:50:38.243Z,4.87
2019-01-17T05:51:38.160Z,4.93
2019-01-17T05:52:38.103Z,4.90
2019-01-17T05:53:38.217Z,4.91
2019-01-17T05:54:38.160Z,4.84
2019-01-17T05:55:38.063Z,4.88
2019-01-17T05:56:38.071Z,4.83
2019-01-17T05:57:38.074Z,4.83
2019-01-17T05:58:38.032Z,4.90
2019-01-17T05:59:38.100Z,4.90
2019-01-17T06:00:38.085Z,4.86
2019-01-17T06:01:38.025Z,4.88
2019-01-17T06:02:38.025Z,4.87
2019-01-17T06:03:38.010Z,4.79
2019-01-17T06:04:38.023Z,4.80
2019-01-17T06:05:37.962Z,4.83
2019-01-17T06:06:38.138Z,4.75
2019-01-17T06:07:37.979Z,4.93
2019-01-17T06:08:37.926Z,4.79
2019-01-17T06:09:37.922Z,4.83
2019-01-17T06:10:37.914Z,4.77
2019-01-17T06:11:37.934Z,4.83
2019-01-17T06:12:37.884Z,4.80
2019-01-17T06:13:37.919Z,4.71
2019-01-17T06:14:37.902Z,4.75
2019-01-17T06:15:37.877Z,4.79
2019-01-17T06:16:37.842Z,4.80
2019-01-17T06:17:37.839Z,4.83
2019-01-17T06:18:37.847Z,4.84
2019-01-17T06:19:37.870Z,4.88
2019-01-17T06:20:37.835Z,4.91
2019-01-17T06:21:37.808Z,4.88
2019-01-17T06:22:37.781Z,4.87
2019-01-17T06:23:37.829Z,4.90
2019-01-17T06:24:37.781Z,4.93
2019-01-17T06:25:37.864Z,4.90
2019-01-17T06:26:37.752Z,4.90
2019-01-17T06:27:37.783Z,4.94
2019-01-17T06:28:37.888Z,4.96
2019-01-17T06:29:37.710Z,4.93
2019-01-17T06:30:37.756Z,4.93
2019-01-17T06:31:37.688Z,4.91
2019-01-17T06:32:37.775Z,4.93
2019-01-17T06:33:37.689Z,5.01
2019-01-17T06:34:37.670Z,4.87
2019-01-17T06:35:37.709Z,4.94
2019-01-17T06:36:37.654Z,4.96
2019-01-17T06:37:37.665Z,4.94
2019-01-17T06:38:37.642Z,4.90
2019-01-17T06:39:37.607Z,4.91
2019-01-17T06:40:37.601Z,4.90
2019-01-17T06:41:37.588Z,4.93
2019-01-17T06:42:37.569Z,5.01
2019-01-17T06:43:37.603Z,4.86
2019-01-17T06:44:37.573Z,4.99
2019-01-17T06:45:37.539Z,4.91
2019-01-17T06:46:37.539Z,4.94
2019-01-17T06:47:37.590Z,4.97
2019-01-17T06:48:37.510Z,5.02
2019-01-17T06:49:37.713Z,5.01
2019-01-17T06:50:37.560Z,4.96
2019-01-17T06:51:37.477Z,4.99
2019-01-17T06:52:37.468Z,5.02
2019-01-17T06:53:37.455Z,4.99
2019-01-17T06:54:37.507Z,5.01
2019-01-17T06:55:37.468Z,5.02
2019-01-17T06:56:37.422Z,5.02
2019-01-17T06:57:37.416Z,4.96
2019-01-17T06:58:37.441Z,5.01
2019-01-17T06:59:37.408Z,5.01
2019-01-17T07:00:37.423Z,4.99
2019-01-17T07:01:37.407Z,4.99
2019-01-17T07:02:37.353Z,4.93
2019-01-17T07:03:37.451Z,4.97
2019-01-17T07:04:37.337Z,5.01
2019-01-17T07:05:37.350Z,4.88
2019-01-17T07:06:37.313Z,4.94
2019-01-17T07:07:37.476Z,4.97
2019-01-17T07:08:37.290Z,4.91
2019-01-17T07:09:37.295Z,4.94
2019-01-17T07:10:37.292Z,4.91
2019-01-17T07:11:37.533Z,4.93
2019-01-17T07:12:37.330Z,4.94
2019-01-17T07:13:37.280Z,4.91
2019-01-17T07:14:37.225Z,4.93
2019-01-17T07:15:37.259Z,4.96
2019-01-17T07:16:37.241Z,4.94
2019-01-17T07:17:37.196Z,4.88
2019-01-17T07:18:37.203Z,4.93
2019-01-17T07:19:37.192Z,4.84
2019-01-17T07:20:37.175Z,4.93
2019-01-17T07:21:37.271Z,4.88
2019-01-17T07:22:37.162Z,4.79
2019-01-17T07:23:37.138Z,4.77
2019-01-17T07:24:37.135Z,4.83
2019-01-17T07:25:41.018Z,4.74
2019-01-17T07:26:37.147Z,4.77
2019-01-17T07:27:37.092Z,4.72
2019-01-17T07:28:37.099Z,4.57
2019-01-17T07:29:37.079Z,4.64
2019-01-17T07:30:37.071Z,4.47
2019-01-17T07:31:37.089Z,4.46
2019-01-17T07:32:37.069Z,4.43
2019-01-17T07:33:37.025Z,4.36
2019-01-17T07:34:37.032Z,4.42
2019-01-17T07:35:37.037Z,4.39
2019-01-17T07:36:37.023Z,4.38
2019-01-17T07:37:36.984Z,4.42
2019-01-17T07:38:36.983Z,4.36
2019-01-17T07:39:37.027Z,4.50
2019-01-17T07:40:36.992Z,4.62
2019-01-17T07:41:36.981Z,4.61
2019-01-17T07:42:37.013Z,4.65
2019-01-17T07:43:37.081Z,4.69
2019-01-17T07:44:36.913Z,4.72
2019-01-17T07:45:36.907Z,4.74
2019-01-17T07:46:37.045Z,4.68
2019-01-17T07:47:36.918Z,4.65
2019-01-17T07:48:36.897Z,4.69
2019-01-17T07:49:36.860Z,4.61
2019-01-17T07:50:36.852Z,4.65
2019-01-17T07:51:36.883Z,4.54
2019-01-17T07:52:36.950Z,4.44
2019-01-17T07:53:36.877Z,4.47
2019-01-17T07:54:36.804Z,4.46
2019-01-17T07:55:36.870Z,4.46
2019-01-17T07:56:36.792Z,4.42
2019-01-17T07:57:36.887Z,4.28
2019-01-17T07:58:36.854Z,4.35
2019-01-17T07:59:36.750Z,4.32
2019-01-17T08:00:36.740Z,4.25
2019-01-17T08:01:36.733Z,4.18
2019-01-17T08:02:36.918Z,4.11
2019-01-17T08:03:36.748Z,4.16
2019-01-17T08:04:36.697Z,4.11
2019-01-17T08:05:36.698Z,4.07
2019-01-17T08:06:36.737Z,4.14
2019-01-17T08:07:36.667Z,4.07
2019-01-17T08:08:36.925Z,4.16
2019-01-17T08:09:36.645Z,4.06
2019-01-17T08:10:36.795Z,4.10
2019-01-17T08:11:36.691Z,4.16
2019-01-17T08:12:36.617Z,4.10
2019-01-17T08:13:36.628Z,4.14
2019-01-17T08:14:36.622Z,4.10
2019-01-17T08:15:36.584Z,4.16
2019-01-17T08:16:36.580Z,4.18
2019-01-17T08:17:36.668Z,4.29
2019-01-17T08:18:36.622Z,4.25
2019-01-17T08:19:36.559Z,4.34
2019-01-17T08:20:36.721Z,4.31
2019-01-17T08:21:36.515Z,4.39
2019-01-17T08:22:36.680Z,4.42
2019-01-17T08:23:36.540Z,4.46
2019-01-17T08:24:36.482Z,4.50
2019-01-17T08:25:36.476Z,4.62
2019-01-17T08:26:36.544Z,4.57
2019-01-17T08:27:36.453Z,4.71
2019-01-17T08:28:36.519Z,4.69
2019-01-17T08:29:36.505Z,4.75
2019-01-17T08:30:36.426Z,4.77
2019-01-17T08:31:36.467Z,4.77
2019-01-17T08:32:36.431Z,4.83
2019-01-17T08:33:36.473Z,4.88
2019-01-17T08:34:36.425Z,4.94
2019-01-17T08:35:36.383Z,4.87
2019-01-17T08:36:36.376Z,4.88
2019-01-17T08:37:36.357Z,4.93
2019-01-17T08:38:36.426Z,4.96
2019-01-17T08:39:36.333Z,4.91
2019-01-17T08:40:36.317Z,4.86
2019-01-17T08:41:36.354Z,4.91
2019-01-17T08:42:36.333Z,4.84
2019-01-17T08:43:36.421Z,4.88
2019-01-17T08:44:36.280Z,4.91
2019-01-17T08:45:36.278Z,4.91
2019-01-17T08:46:36.254Z,4.94
2019-01-17T08:47:36.299Z,4.94
2019-01-17T08:48:36.271Z,5.04
2019-01-17T08:49:36.221Z,4.96
2019-01-17T08:50:36.441Z,4.96
2019-01-17T08:51:36.229Z,4.94
2019-01-17T08:52:36.187Z,4.97
2019-01-17T08:53:36.207Z,4.96
2019-01-17T08:54:36.189Z,5.01
2019-01-17T08:55:36.196Z,4.96
2019-01-17T08:56:36.229Z,4.97
2019-01-17T08:57:36.132Z,5.04
2019-01-17T08:58:36.126Z,5.08
2019-01-17T08:59:36.234Z,5.14
2019-01-17T09:00:36.117Z,5.11
2019-01-17T09:01:36.097Z,5.23
2019-01-17T09:02:36.186Z,5.17
2019-01-17T09:03:36.101Z,5.19
2019-01-17T09:04:36.077Z,5.32
2019-01-17T09:05:36.082Z,5.33
2019-01-17T09:06:36.084Z,5.32
2019-01-17T09:07:36.082Z,5.45
2019-01-17T09:08:36.122Z,5.41
2019-01-17T09:09:36.019Z,5.49
2019-01-17T09:10:36.090Z,5.55
2019-01-17T09:11:36.025Z,5.55
2019-01-17T09:12:35.986Z,5.60
2019-01-17T09:13:36.001Z,5.65
2019-01-17T09:14:35.999Z,5.60
2019-01-17T09:15:35.942Z,5.60
2019-01-17T09:16:35.967Z,5.67
2019-01-17T09:17:35.951Z,5.66
2019-01-17T09:18:35.921Z,5.63
2019-01-17T09:19:35.944Z,5.73
2019-01-17T09:20:35.961Z,5.69
2019-01-17T09:21:36.136Z,5.70
2019-01-17T09:22:35.900Z,5.69
2019-01-17T09:23:35.985Z,5.73
2019-01-17T09:24:35.847Z,5.74
2019-01-17T09:25:35.880Z,5.75
2019-01-17T09:26:35.832Z,5.75
2019-01-17T09:27:35.851Z,5.78
2019-01-17T09:28:35.818Z,5.75
2019-01-17T09:29:35.968Z,5.78
2019-01-17T09:30:35.848Z,5.87
2019-01-17T09:31:35.850Z,5.80
2019-01-17T09:32:35.764Z,5.85
2019-01-17T09:33:35.934Z,5.84
2019-01-17T09:34:35.839Z,5.78
2019-01-17T09:35:35.773Z,5.81
2019-01-17T09:36:35.730Z,5.84
2019-01-17T09:37:35.874Z,5.83
2019-01-17T09:38:35.783Z,5.85
2019-01-17T09:39:35.698Z,5.87
2019-01-17T09:40:35.705Z,5.95
2019-01-17T09:41:35.691Z,5.84
2019-01-17T09:42:35.701Z,5.95
2019-01-17T09:43:35.644Z,6.08
2019-01-17T09:44:35.687Z,6.19
2019-01-17T09:45:35.632Z,6.27
2019-01-17T09:46:35.649Z,6.17
2019-01-17T09:47:35.845Z,6.13
2019-01-17T09:48:35.608Z,6.27
2019-01-17T09:49:35.592Z,6.21
2019-01-17T09:50:35.619Z,6.13
2019-01-17T09:51:35.643Z,6.30
2019-01-17T09:52:35.590Z,6.30
2019-01-17T09:53:35.708Z,6.28
2019-01-17T09:54:35.564Z,6.33
2019-01-17T09:55:35.588Z,6.32
2019-01-17T09:56:35.537Z,6.42
2019-01-17T09:57:35.496Z,6.42
2019-01-17T09:58:35.529Z,6.50
2019-01-17T09:59:35.540Z,6.43
2019-01-17T10:00:35.554Z,6.42
2019-01-17T10:01:35.484Z,6.46
2019-01-17T10:02:35.741Z,6.50
2019-01-17T10:03:35.494Z,6.60
2019-01-17T10:04:35.493Z,6.60
2019-01-17T10:05:35.524Z,6.78
2019-01-17T10:06:35.433Z,6.87
2019-01-17T10:07:35.531Z,6.89
2019-01-17T10:08:35.438Z,6.90
2019-01-17T10:09:35.377Z,6.99
2019-01-17T10:10:35.388Z,6.94
2019-01-17T10:11:35.347Z,6.91
2019-01-17T10:12:35.465Z,6.97
2019-01-17T10:13:35.353Z,6.90
2019-01-17T10:14:35.327Z,6.99
2019-01-17T10:15:35.520Z,7.08
2019-01-17T10:16:35.414Z,7.24
2019-01-17T10:17:35.308Z,7.19
2019-01-17T10:18:35.285Z,7.26
2019-01-17T10:19:35.305Z,7.37
2019-01-17T10:20:35.248Z,7.47
2019-01-17T10:21:35.258Z,7.42
2019-01-17T10:22:35.291Z,7.39
2019-01-17T10:23:35.230Z,7.42
2019-01-17T10:24:35.234Z,7.36
2019-01-17T10:25:35.429Z,7.42
2019-01-17T10:26:35.183Z,7.48
2019-01-17T10:27:35.190Z,7.44
2019-01-17T10:28:35.194Z,7.51
2019-01-17T10:29:35.153Z,7.55
2019-01-17T10:30:35.181Z,7.36
2019-01-17T10:31:35.138Z,7.51
2019-01-17T10:32:35.769Z,7.54
2019-01-17T10:33:35.167Z,7.48
2019-01-17T10:34:35.129Z,7.37
2019-01-17T10:35:35.135Z,7.51
2019-01-17T10:36:35.085Z,7.54
2019-01-17T10:37:35.198Z,7.39
2019-01-17T10:38:35.125Z,7.47
2019-01-17T10:39:35.141Z,7.51
2019-01-17T10:40:35.467Z,7.48
2019-01-17T10:41:35.074Z,7.50
2019-01-17T10:42:35.014Z,7.44
2019-01-17T10:43:35.041Z,7.39
2019-01-17T10:44:35.090Z,7.34
2019-01-17T10:45:35.033Z,7.33
2019-01-17T10:46:35.021Z,7.32
2019-01-17T10:47:34.972Z,7.27
2019-01-17T10:48:34.962Z,7.27
2019-01-17T10:49:34.979Z,7.27
2019-01-17T10:50:34.940Z,7.29
2019-01-17T10:51:35.056Z,7.41
2019-01-17T10:52:34.910Z,7.39
2019-01-17T10:53:34.924Z,7.48
2019-01-17T10:54:34.960Z,7.44
2019-01-17T10:55:34.918Z,7.44
2019-01-17T10:56:41.054Z,7.44
2019-01-17T10:57:35.936Z,7.42
2019-01-17T10:58:34.868Z,7.45
2019-01-17T10:59:34.898Z,7.51
2019-01-17T11:00:34.905Z,7.45
2019-01-17T11:01:34.809Z,7.45
2019-01-17T11:02:34.802Z,7.45
2019-01-17T11:03:34.893Z,7.47
2019-01-17T11:04:34.870Z,7.48
2019-01-17T11:05:34.810Z,7.52
2019-01-17T11:06:34.770Z,7.58
2019-01-17T11:07:34.747Z,7.58
2019-01-17T11:08:34.758Z,7.66
2019-01-17T11:09:34.865Z,7.52
2019-01-17T11:10:34.723Z,7.63
2019-01-17T11:11:34.720Z,7.66
2019-01-17T11:12:34.718Z,7.51
2019-01-17T11:13:34.689Z,7.52
2019-01-17T11:14:34.730Z,7.66
2019-01-17T11:15:34.694Z,7.57
2019-01-17T11:16:34.662Z,7.62
2019-01-17T11:17:34.643Z,7.62
2019-01-17T11:18:34.729Z,7.55
2019-01-17T11:19:34.641Z,7.69
2019-01-17T11:20:34.683Z,7.79
2019-01-17T11:21:34.609Z,7.79
2019-01-17T11:22:34.587Z,7.77
2019-01-17T11:23:34.573Z,7.76
2019-01-17T11:24:34.630Z,7.77
2019-01-17T11:25:34.586Z,7.85
2019-01-17T11:26:34.600Z,7.85
2019-01-17T11:27:34.541Z,7.85
2019-01-17T11:28:34.526Z,7.91
2019-01-17T11:29:34.563Z,7.95
2019-01-17T11:30:34.534Z,7.91
2019-01-17T11:31:34.520Z,7.96
2019-01-17T11:32:34.509Z,7.99
2019-01-17T11:33:34.574Z,7.95
2019-01-17T11:34:34.463Z,7.95
2019-01-17T11:35:34.448Z,7.86
2019-01-17T11:36:34.475Z,7.85
2019-01-17T11:37:34.433Z,7.89
2019-01-17T11:38:34.478Z,7.95
2019-01-17T11:39:34.407Z,8.00
2019-01-17T11:40:34.413Z,8.03
2019-01-17T11:41:34.418Z,7.99
2019-01-17T11:42:34.393Z,8.03
2019-01-17T11:43:34.424Z,8.04
2019-01-17T11:44:34.378Z,8.06
2019-01-17T11:45:34.370Z,8.04
2019-01-17T11:46:34.390Z,7.92
2019-01-17T11:47:34.316Z,7.89
2019-01-17T11:48:34.323Z,7.94
2019-01-17T11:49:34.315Z,8.02
2019-01-17T11:50:34.294Z,7.92
2019-01-17T11:51:34.311Z,8.02
2019-01-17T11:52:34.290Z,8.02
2019-01-17T11:53:35.031Z,7.99
2019-01-17T11:54:34.272Z,7.95
2019-01-17T11:55:34.272Z,7.99
2019-01-17T11:56:34.247Z,7.82
2019-01-17T11:57:34.238Z,7.85
2019-01-17T11:58:34.200Z,7.84
2019-01-17T11:59:34.193Z,7.84
2019-01-17T12:00:34.178Z,7.67
2019-01-17T12:01:34.167Z,7.60
2019-01-17T12:02:39.088Z,7.63
2019-01-17T12:03:35.157Z,7.63
2019-01-17T12:04:34.137Z,7.60
2019-01-17T12:05:34.132Z,7.58
2019-01-17T12:06:34.114Z,7.67
2019-01-17T12:07:34.128Z,7.62
2019-01-17T12:08:34.109Z,7.69
2019-01-17T12:09:34.146Z,7.77
2019-01-17T12:10:34.070Z,7.79
2019-01-17T12:11:34.056Z,7.82
2019-01-17T12:12:34.101Z,7.86
2019-01-17T12:13:34.079Z,7.84
2019-01-17T12:14:34.027Z,7.89
2019-01-17T12:15:34.169Z,7.82
2019-01-17T12:16:34.008Z,7.77
2019-01-17T12:17:34.054Z,7.67
2019-01-17T12:18:33.996Z,7.71
2019-01-17T12:19:33.980Z,7.69
2019-01-17T12:20:33.992Z,7.51
2019-01-17T12:21:33.959Z,7.50
2019-01-17T12:22:34.003Z,7.55
2019-01-17T12:23:33.937Z,7.52
2019-01-17T12:24:33.917Z,7.70
2019-01-17T12:25:33.932Z,7.54
2019-01-17T12:26:33.928Z,7.51
2019-01-17T12:27:34.035Z,7.48
2019-01-17T12:28:33.907Z,7.52
2019-01-17T12:29:33.891Z,7.42
2019-01-17T12:30:33.959Z,7.44
2019-01-17T12:31:33.854Z,7.47
2019-01-17T12:32:33.868Z,7.34
2019-01-17T12:33:33.871Z,7.34
2019-01-17T12:34:33.813Z,7.36
2019-01-17T12:35:34.238Z,7.36
2019-01-17T12:36:33.816Z,7.29
2019-01-17T12:37:33.804Z,7.26
2019-01-17T12:38:33.793Z,7.29
2019-01-17T12:39:33.832Z,7.24
2019-01-17T12:40:33.756Z,7.29
2019-01-17T12:41:33.815Z,7.27
2019-01-17T12:42:33.751Z,7.27
2019-01-17T12:43:33.772Z,7.08
2019-01-17T12:44:33.786Z,6.94
2019-01-17T12:45:33.702Z,6.83
2019-01-17T12:46:33.685Z,6.78
2019-01-17T12:47:33.687Z,6.63
2019-01-17T12:48:34.225Z,6.54
2019-01-17T12:49:33.671Z,6.42
2019-01-17T12:50:33.642Z,6.38
2019-01-17T12:51:33.648Z,6.25
2019-01-17T12:52:33.702Z,6.20
2019-01-17T12:53:33.618Z,6.02
2019-01-17T12:54:33.627Z,5.92
2019-01-17T12:55:33.616Z,5.80
2019-01-17T12:56:33.577Z,5.77
2019-01-17T12:57:33.571Z,5.85
2019-01-17T12:58:33.682Z,5.77
2019-01-17T12:59:33.544Z,5.62
2019-01-17T13:00:33.568Z,5.56
2019-01-17T13:01:33.651Z,5.59
2019-01-17T13:02:33.539Z,5.49
2019-01-17T13:03:33.513Z,5.44
2019-01-17T13:04:33.493Z,5.40
2019-01-17T13:05:33.559Z,5.30
2019-01-17T13:06:33.481Z,5.30
2019-01-17T13:07:33.461Z,5.26
2019-01-17T13:08:33.541Z,5.19
2019-01-17T13:09:33.472Z,5.19
2019-01-17T13:10:33.497Z,5.11
2019-01-17T13:11:33.455Z,5.02
2019-01-17T13:12:33.488Z,5.06
2019-01-17T13:13:33.415Z,5.01
2019-01-17T13:14:33.392Z,4.99
2019-01-17T13:15:33.488Z,4.91
2019-01-17T13:16:33.473Z,4.91
2019-01-17T13:17:33.352Z,4.94
2019-01-17T13:18:33.350Z,4.90